sensor_id;sensor_type;location;lat;lon;timestamp;P1;durP1;ratioP1;P2;durP2;ratioP2
6979;SDS011;3530;52.832;10.680;2023-05-10T00:01:38;4.35;;;3.20;;
6979;SDS011;3530;52.832;10.680;2023-05-10T00:04:23;3.58;;;3.35;;
6979;SDS011;3530;52.832;10.680;2023-05-10T00:07:12;3.40;;;3.20;;
6979;SDS011;3530;52.832;10.680;2023-05-10T00:09:58;3.65;;;3.15;;
6979;SDS011;3530;52.832;10.680;2023-05-10T00:12:43;2.92;;;2.72;;
6979;SDS011;3530;52.832;10.680;2023-05-10T00:15:29;4.20;;;3.85;;
6979;SDS011;3530;52.832;10.680;2023-05-10T00:18:15;4.10;;;3.70;;
6979;SDS011;3530;52.832;10.680;2023-05-10T00:21:01;4.22;;;2.92;;
6979;SDS011;3530;52.832;10.680;2023-05-10T00:23:47;3.22;;;2.92;;
6979;SDS011;3530;52.832;10.680;2023-05-10T00:26:32;4.57;;;2.88;;
6979;SDS011;3530;52.832;10.680;2023-05-10T00:29:18;4.07;;;3.30;;
6979;SDS011;3530;52.832;10.680;2023-05-10T00:32:04;3.28;;;3.03;;
6979;SDS011;3530;52.832;10.680;2023-05-10T00:34:51;3.63;;;3.33;;
6979;SDS011;3530;52.832;10.680;2023-05-10T00:37:36;3.53;;;3.15;;
6979;SDS011;3530;52.832;10.680;2023-05-10T00:40:22;5.65;;;3.38;;
6979;SDS011;3530;52.832;10.680;2023-05-10T00:43:08;3.63;;;3.30;;
6979;SDS011;3530;52.832;10.680;2023-05-10T00:45:54;4.40;;;3.28;;
6979;SDS011;3530;52.832;10.680;2023-05-10T00:48:40;3.58;;;3.28;;
6979;SDS011;3530;52.832;10.680;2023-05-10T00:51:25;3.88;;;3.58;;
6979;SDS011;3530;52.832;10.680;2023-05-10T00:54:11;3.92;;;3.53;;
6979;SDS011;3530;52.832;10.680;2023-05-10T00:56:57;3.65;;;3.20;;
6979;SDS011;3530;52.832;10.680;2023-05-10T00:59:44;3.50;;;3.20;;
6979;SDS011;3530;52.832;10.680;2023-05-10T01:02:29;3.10;;;2.90;;
6979;SDS011;3530;52.832;10.680;2023-05-10T01:05:15;3.85;;;3.55;;
6979;SDS011;3530;52.832;10.680;2023-05-10T01:08:01;3.20;;;3.00;;
6979;SDS011;3530;52.832;10.680;2023-05-10T01:10:47;4.68;;;3.78;;
6979;SDS011;3530;52.832;10.680;2023-05-10T01:13:35;5.13;;;3.65;;
6979;SDS011;3530;52.832;10.680;2023-05-10T01:16:22;3.60;;;3.30;;
6979;SDS011;3530;52.832;10.680;2023-05-10T01:19:12;3.72;;;3.53;;
6979;SDS011;3530;52.832;10.680;2023-05-10T01:22:42;4.57;;;3.30;;
6979;SDS011;3530;52.832;10.680;2023-05-10T01:32:53;3.63;;;3.33;;
6979;SDS011;3530;52.832;10.680;2023-05-10T01:35:34;3.80;;;3.47;;
6979;SDS011;3530;52.832;10.680;2023-05-10T01:41:39;4.35;;;3.95;;
6979;SDS011;3530;52.832;10.680;2023-05-10T01:44:39;3.80;;;3.50;;
6979;SDS011;3530;52.832;10.680;2023-05-10T01:47:37;4.45;;;3.88;;
6979;SDS011;3530;52.832;10.680;2023-05-10T01:50:27;5.22;;;3.55;;
6979;SDS011;3530;52.832;10.680;2023-05-10T01:53:17;3.58;;;3.30;;
6979;SDS011;3530;52.832;10.680;2023-05-10T01:56:03;3.50;;;3.17;;
6979;SDS011;3530;52.832;10.680;2023-05-10T01:58:50;4.25;;;3.85;;
6979;SDS011;3530;52.832;10.680;2023-05-10T02:01:37;5.03;;;3.85;;
6979;SDS011;3530;52.832;10.680;2023-05-10T02:04:24;4.10;;;3.80;;
6979;SDS011;3530;52.832;10.680;2023-05-10T02:07:11;3.65;;;3.42;;
6979;SDS011;3530;52.832;10.680;2023-05-10T02:09:57;4.22;;;3.83;;
6979;SDS011;3530;52.832;10.680;2023-05-10T02:12:44;5.18;;;3.65;;
6979;SDS011;3530;52.832;10.680;2023-05-10T02:15:31;4.85;;;3.80;;
6979;SDS011;3530;52.832;10.680;2023-05-10T02:18:17;4.82;;;4.28;;
6979;SDS011;3530;52.832;10.680;2023-05-10T02:21:03;4.57;;;4.18;;
6979;SDS011;3530;52.832;10.680;2023-05-10T02:23:50;4.60;;;4.25;;
6979;SDS011;3530;52.832;10.680;2023-05-10T02:26:36;4.22;;;3.85;;
6979;SDS011;3530;52.832;10.680;2023-05-10T02:29:24;5.18;;;4.00;;
6979;SDS011;3530;52.832;10.680;2023-05-10T02:32:10;4.68;;;4.28;;
6979;SDS011;3530;52.832;10.680;2023-05-10T02:34:56;4.47;;;4.00;;
6979;SDS011;3530;52.832;10.680;2023-05-10T02:37:42;4.18;;;3.70;;
6979;SDS011;3530;52.832;10.680;2023-05-10T02:40:29;6.05;;;4.38;;
6979;SDS011;3530;52.832;10.680;2023-05-10T02:43:15;5.65;;;4.28;;
6979;SDS011;3530;52.832;10.680;2023-05-10T02:46:03;4.07;;;3.78;;
6979;SDS011;3530;52.832;10.680;2023-05-10T02:48:49;4.57;;;4.10;;
6979;SDS011;3530;52.832;10.680;2023-05-10T02:51:35;3.30;;;3.10;;
6979;SDS011;3530;52.832;10.680;2023-05-10T02:54:24;4.28;;;3.88;;
6979;SDS011;3530;52.832;10.680;2023-05-10T02:57:15;4.63;;;3.47;;
6979;SDS011;3530;52.832;10.680;2023-05-10T03:00:04;4.72;;;3.85;;
6979;SDS011;3530;52.832;10.680;2023-05-10T03:02:50;4.32;;;3.92;;
6979;SDS011;3530;52.832;10.680;2023-05-10T03:05:36;6.38;;;4.07;;
6979;SDS011;3530;52.832;10.680;2023-05-10T03:08:22;5.00;;;3.88;;
6979;SDS011;3530;52.832;10.680;2023-05-10T03:14:42;4.50;;;4.10;;
6979;SDS011;3530;52.832;10.680;2023-05-10T03:17:40;6.13;;;3.85;;
6979;SDS011;3530;52.832;10.680;2023-05-10T03:20:36;4.90;;;4.25;;
6979;SDS011;3530;52.832;10.680;2023-05-10T03:26:43;4.45;;;4.05;;
6979;SDS011;3530;52.832;10.680;2023-05-10T03:29:30;4.10;;;3.75;;
6979;SDS011;3530;52.832;10.680;2023-05-10T03:32:16;4.47;;;4.18;;
6979;SDS011;3530;52.832;10.680;2023-05-10T03:35:06;4.65;;;4.25;;
6979;SDS011;3530;52.832;10.680;2023-05-10T03:37:52;4.25;;;3.88;;
6979;SDS011;3530;52.832;10.680;2023-05-10T03:40:38;4.05;;;3.75;;
6979;SDS011;3530;52.832;10.680;2023-05-10T03:43:24;4.22;;;3.92;;
6979;SDS011;3530;52.832;10.680;2023-05-10T03:46:09;6.00;;;4.20;;
6979;SDS011;3530;52.832;10.680;2023-05-10T03:48:55;4.60;;;4.18;;
6979;SDS011;3530;52.832;10.680;2023-05-10T03:51:41;6.78;;;6.13;;
6979;SDS011;3530;52.832;10.680;2023-05-10T03:54:26;4.43;;;3.70;;
6979;SDS011;3530;52.832;10.680;2023-05-10T03:57:12;4.07;;;3.67;;
6979;SDS011;3530;52.832;10.680;2023-05-10T03:59:58;3.83;;;3.53;;
6979;SDS011;3530;52.832;10.680;2023-05-10T04:02:43;4.50;;;3.83;;
6979;SDS011;3530;52.832;10.680;2023-05-10T04:05:29;5.90;;;4.35;;
6979;SDS011;3530;52.832;10.680;2023-05-10T04:08:15;4.97;;;4.55;;
6979;SDS011;3530;52.832;10.680;2023-05-10T04:11:05;4.25;;;3.90;;
6979;SDS011;3530;52.832;10.680;2023-05-10T04:13:53;4.50;;;4.10;;
6979;SDS011;3530;52.832;10.680;2023-05-10T04:16:39;4.47;;;4.07;;
6979;SDS011;3530;52.832;10.680;2023-05-10T04:19:28;4.05;;;3.75;;
6979;SDS011;3530;52.832;10.680;2023-05-10T04:22:15;5.25;;;4.03;;
6979;SDS011;3530;52.832;10.680;2023-05-10T04:25:01;5.50;;;3.88;;
6979;SDS011;3530;52.832;10.680;2023-05-10T04:27:46;5.32;;;4.13;;
6979;SDS011;3530;52.832;10.680;2023-05-10T04:30:32;5.28;;;4.10;;
6979;SDS011;3530;52.832;10.680;2023-05-10T04:33:18;5.22;;;4.28;;
6979;SDS011;3530;52.832;10.680;2023-05-10T04:36:03;4.53;;;4.13;;
6979;SDS011;3530;52.832;10.680;2023-05-10T04:38:49;7.63;;;4.18;;
6979;SDS011;3530;52.832;10.680;2023-05-10T04:41:35;4.13;;;3.83;;
6979;SDS011;3530;52.832;10.680;2023-05-10T04:44:20;4.90;;;4.30;;
6979;SDS011;3530;52.832;10.680;2023-05-10T04:47:06;4.43;;;4.03;;
6979;SDS011;3530;52.832;10.680;2023-05-10T04:49:52;3.90;;;3.60;;
6979;SDS011;3530;52.832;10.680;2023-05-10T04:52:37;5.97;;;3.95;;
6979;SDS011;3530;52.832;10.680;2023-05-10T04:55:24;8.38;;;4.45;;
6979;SDS011;3530;52.832;10.680;2023-05-10T04:58:10;4.50;;;4.05;;
6979;SDS011;3530;52.832;10.680;2023-05-10T05:00:55;6.05;;;3.60;;
6979;SDS011;3530;52.832;10.680;2023-05-10T05:03:41;4.05;;;3.75;;
6979;SDS011;3530;52.832;10.680;2023-05-10T05:06:27;4.80;;;4.07;;
6979;SDS011;3530;52.832;10.680;2023-05-10T05:09:13;6.35;;;3.85;;
6979;SDS011;3530;52.832;10.680;2023-05-10T05:11:59;4.20;;;3.80;;
6979;SDS011;3530;52.832;10.680;2023-05-10T05:14:44;4.03;;;3.72;;
6979;SDS011;3530;52.832;10.680;2023-05-10T05:17:30;4.10;;;3.70;;
6979;SDS011;3530;52.832;10.680;2023-05-10T05:20:16;3.53;;;3.22;;
6979;SDS011;3530;52.832;10.680;2023-05-10T05:23:04;3.83;;;3.53;;
6979;SDS011;3530;52.832;10.680;2023-05-10T05:25:51;10.00;;;4.10;;
6979;SDS011;3530;52.832;10.680;2023-05-10T05:28:39;8.38;;;4.75;;
6979;SDS011;3530;52.832;10.680;2023-05-10T05:31:25;6.13;;;4.90;;
6979;SDS011;3530;52.832;10.680;2023-05-10T05:34:11;10.63;;;5.18;;
6979;SDS011;3530;52.832;10.680;2023-05-10T05:36:57;4.82;;;3.65;;
6979;SDS011;3530;52.832;10.680;2023-05-10T05:39:42;4.28;;;3.42;;
6979;SDS011;3530;52.832;10.680;2023-05-10T05:42:29;4.13;;;3.80;;
6979;SDS011;3530;52.832;10.680;2023-05-10T05:45:16;5.68;;;3.88;;
6979;SDS011;3530;52.832;10.680;2023-05-10T05:48:02;4.50;;;3.10;;
6979;SDS011;3530;52.832;10.680;2023-05-10T05:50:47;4.05;;;3.58;;
6979;SDS011;3530;52.832;10.680;2023-05-10T05:53:33;5.70;;;3.53;;
6979;SDS011;3530;52.832;10.680;2023-05-10T05:56:19;6.03;;;3.88;;
6979;SDS011;3530;52.832;10.680;2023-05-10T05:59:09;4.80;;;3.03;;
6979;SDS011;3530;52.832;10.680;2023-05-10T06:01:55;7.78;;;3.92;;
6979;SDS011;3530;52.832;10.680;2023-05-10T06:04:41;4.47;;;3.90;;
6979;SDS011;3530;52.832;10.680;2023-05-10T06:07:27;4.80;;;4.20;;
6979;SDS011;3530;52.832;10.680;2023-05-10T06:10:12;3.80;;;3.40;;
6979;SDS011;3530;52.832;10.680;2023-05-10T06:12:58;4.53;;;3.90;;
6979;SDS011;3530;52.832;10.680;2023-05-10T06:15:43;4.45;;;4.15;;
6979;SDS011;3530;52.832;10.680;2023-05-10T06:18:29;3.95;;;3.65;;
6979;SDS011;3530;52.832;10.680;2023-05-10T06:21:15;3.95;;;3.65;;
6979;SDS011;3530;52.832;10.680;2023-05-10T06:24:01;4.75;;;3.40;;
6979;SDS011;3530;52.832;10.680;2023-05-10T06:26:47;7.18;;;3.95;;
6979;SDS011;3530;52.832;10.680;2023-05-10T06:29:35;3.55;;;3.35;;
6979;SDS011;3530;52.832;10.680;2023-05-10T06:32:20;4.28;;;3.85;;
6979;SDS011;3530;52.832;10.680;2023-05-10T06:35:06;5.13;;;4.30;;
6979;SDS011;3530;52.832;10.680;2023-05-10T06:37:53;4.55;;;4.03;;
6979;SDS011;3530;52.832;10.680;2023-05-10T06:40:41;3.70;;;3.40;;
6979;SDS011;3530;52.832;10.680;2023-05-10T06:43:27;4.03;;;3.63;;
6979;SDS011;3530;52.832;10.680;2023-05-10T06:46:13;4.97;;;3.70;;
6979;SDS011;3530;52.832;10.680;2023-05-10T06:48:59;4.03;;;3.33;;
6979;SDS011;3530;52.832;10.680;2023-05-10T06:51:45;4.30;;;3.35;;
6979;SDS011;3530;52.832;10.680;2023-05-10T06:54:30;5.82;;;3.13;;
6979;SDS011;3530;52.832;10.680;2023-05-10T06:57:16;3.95;;;3.58;;
6979;SDS011;3530;52.832;10.680;2023-05-10T07:00:03;4.22;;;3.45;;
6979;SDS011;3530;52.832;10.680;2023-05-10T07:02:52;3.83;;;3.53;;
6979;SDS011;3530;52.832;10.680;2023-05-10T07:05:37;7.32;;;3.83;;
6979;SDS011;3530;52.832;10.680;2023-05-10T07:08:23;3.80;;;3.45;;
6979;SDS011;3530;52.832;10.680;2023-05-10T07:11:09;6.68;;;3.10;;
6979;SDS011;3530;52.832;10.680;2023-05-10T07:13:55;3.65;;;3.45;;
6979;SDS011;3530;52.832;10.680;2023-05-10T07:16:41;3.47;;;3.17;;
6979;SDS011;3530;52.832;10.680;2023-05-10T07:19:26;5.30;;;4.18;;
6979;SDS011;3530;52.832;10.680;2023-05-10T07:22:12;5.45;;;3.40;;
6979;SDS011;3530;52.832;10.680;2023-05-10T07:24:58;4.38;;;3.97;;
6979;SDS011;3530;52.832;10.680;2023-05-10T07:27:43;4.20;;;3.80;;
6979;SDS011;3530;52.832;10.680;2023-05-10T07:30:29;7.05;;;3.40;;
6979;SDS011;3530;52.832;10.680;2023-05-10T07:33:15;4.82;;;3.45;;
6979;SDS011;3530;52.832;10.680;2023-05-10T07:36:01;3.53;;;3.22;;
6979;SDS011;3530;52.832;10.680;2023-05-10T07:38:46;3.83;;;2.90;;
6979;SDS011;3530;52.832;10.680;2023-05-10T07:41:32;3.80;;;3.30;;
6979;SDS011;3530;52.832;10.680;2023-05-10T07:44:18;3.83;;;3.40;;
6979;SDS011;3530;52.832;10.680;2023-05-10T07:47:05;3.40;;;3.10;;
6979;SDS011;3530;52.832;10.680;2023-05-10T07:49:51;4.68;;;3.88;;
6979;SDS011;3530;52.832;10.680;2023-05-10T07:52:36;5.07;;;3.45;;
6979;SDS011;3530;52.832;10.680;2023-05-10T07:55:22;4.22;;;3.92;;
6979;SDS011;3530;52.832;10.680;2023-05-10T07:58:08;3.65;;;3.35;;
6979;SDS011;3530;52.832;10.680;2023-05-10T08:00:53;3.88;;;3.58;;
6979;SDS011;3530;52.832;10.680;2023-05-10T08:03:39;7.35;;;3.60;;
6979;SDS011;3530;52.832;10.680;2023-05-10T08:06:25;7.20;;;4.43;;
6979;SDS011;3530;52.832;10.680;2023-05-10T08:09:12;5.97;;;3.78;;
6979;SDS011;3530;52.832;10.680;2023-05-10T08:11:58;4.13;;;3.72;;
6979;SDS011;3530;52.832;10.680;2023-05-10T08:14:45;4.57;;;4.18;;
6979;SDS011;3530;52.832;10.680;2023-05-10T08:17:30;4.00;;;3.58;;
6979;SDS011;3530;52.832;10.680;2023-05-10T08:20:16;4.82;;;3.20;;
6979;SDS011;3530;52.832;10.680;2023-05-10T08:23:04;3.50;;;3.30;;
6979;SDS011;3530;52.832;10.680;2023-05-10T08:25:50;4.25;;;3.85;;
6979;SDS011;3530;52.832;10.680;2023-05-10T08:28:35;3.42;;;3.13;;
6979;SDS011;3530;52.832;10.680;2023-05-10T08:31:21;4.32;;;3.95;;
6979;SDS011;3530;52.832;10.680;2023-05-10T08:34:06;3.72;;;3.30;;
6979;SDS011;3530;52.832;10.680;2023-05-10T08:36:52;3.45;;;3.25;;
6979;SDS011;3530;52.832;10.680;2023-05-10T08:39:38;4.53;;;3.55;;
6979;SDS011;3530;52.832;10.680;2023-05-10T08:42:23;4.25;;;3.85;;
6979;SDS011;3530;52.832;10.680;2023-05-10T08:45:11;4.00;;;3.60;;
6979;SDS011;3530;52.832;10.680;2023-05-10T08:47:57;3.45;;;3.20;;
6979;SDS011;3530;52.832;10.680;2023-05-10T08:50:43;4.82;;;4.43;;
6979;SDS011;3530;52.832;10.680;2023-05-10T08:53:29;4.25;;;3.80;;
6979;SDS011;3530;52.832;10.680;2023-05-10T08:56:16;4.32;;;3.92;;
6979;SDS011;3530;52.832;10.680;2023-05-10T08:59:03;3.80;;;3.50;;
6979;SDS011;3530;52.832;10.680;2023-05-10T09:01:48;4.43;;;3.50;;
6979;SDS011;3530;52.832;10.680;2023-05-10T09:04:35;3.92;;;3.63;;
6979;SDS011;3530;52.832;10.680;2023-05-10T09:07:20;3.78;;;3.47;;
6979;SDS011;3530;52.832;10.680;2023-05-10T09:10:06;5.43;;;4.20;;
6979;SDS011;3530;52.832;10.680;2023-05-10T09:12:53;4.85;;;4.15;;
6979;SDS011;3530;52.832;10.680;2023-05-10T09:15:39;5.90;;;4.75;;
6979;SDS011;3530;52.832;10.680;2023-05-10T09:18:24;5.40;;;4.72;;
6979;SDS011;3530;52.832;10.680;2023-05-10T09:21:10;4.95;;;3.97;;
6979;SDS011;3530;52.832;10.680;2023-05-10T09:23:56;5.18;;;4.47;;
6979;SDS011;3530;52.832;10.680;2023-05-10T09:26:48;6.78;;;4.18;;
6979;SDS011;3530;52.832;10.680;2023-05-10T09:29:41;4.50;;;4.18;;
6979;SDS011;3530;52.832;10.680;2023-05-10T09:32:48;4.80;;;4.35;;
6979;SDS011;3530;52.832;10.680;2023-05-10T09:35:33;4.72;;;4.32;;
6979;SDS011;3530;52.832;10.680;2023-05-10T09:38:19;4.85;;;4.35;;
6979;SDS011;3530;52.832;10.680;2023-05-10T09:41:14;3.90;;;3.50;;
6979;SDS011;3530;52.832;10.680;2023-05-10T09:44:01;6.45;;;4.20;;
6979;SDS011;3530;52.832;10.680;2023-05-10T09:46:50;4.63;;;4.18;;
6979;SDS011;3530;52.832;10.680;2023-05-10T09:49:37;4.68;;;4.28;;
6979;SDS011;3530;52.832;10.680;2023-05-10T09:52:23;5.03;;;4.25;;
6979;SDS011;3530;52.832;10.680;2023-05-10T09:55:09;4.63;;;4.20;;
6979;SDS011;3530;52.832;10.680;2023-05-10T09:58:01;4.25;;;3.88;;
6979;SDS011;3530;52.832;10.680;2023-05-10T10:00:47;4.60;;;4.25;;
6979;SDS011;3530;52.832;10.680;2023-05-10T10:03:41;6.70;;;4.30;;
6979;SDS011;3530;52.832;10.680;2023-05-10T10:06:27;5.18;;;4.68;;
6979;SDS011;3530;52.832;10.680;2023-05-10T10:09:13;5.40;;;4.60;;
6979;SDS011;3530;52.832;10.680;2023-05-10T10:11:59;5.28;;;4.25;;
6979;SDS011;3530;52.832;10.680;2023-05-10T10:14:48;6.90;;;4.45;;
6979;SDS011;3530;52.832;10.680;2023-05-10T10:17:36;4.72;;;4.32;;
6979;SDS011;3530;52.832;10.680;2023-05-10T10:20:23;13.82;;;7.38;;
6979;SDS011;3530;52.832;10.680;2023-05-10T10:23:10;5.82;;;4.70;;
6979;SDS011;3530;52.832;10.680;2023-05-10T10:25:55;5.82;;;5.18;;
6979;SDS011;3530;52.832;10.680;2023-05-10T10:28:57;8.20;;;6.65;;
6979;SDS011;3530;52.832;10.680;2023-05-10T10:31:53;5.70;;;5.20;;
6979;SDS011;3530;52.832;10.680;2023-05-10T10:34:43;8.98;;;5.18;;
6979;SDS011;3530;52.832;10.680;2023-05-10T10:37:45;7.05;;;5.63;;
6979;SDS011;3530;52.832;10.680;2023-05-10T10:40:32;6.03;;;5.43;;
6979;SDS011;3530;52.832;10.680;2023-05-10T10:43:25;6.03;;;5.43;;
6979;SDS011;3530;52.832;10.680;2023-05-10T10:46:13;6.07;;;5.55;;
6979;SDS011;3530;52.832;10.680;2023-05-10T10:49:08;5.90;;;5.20;;
6979;SDS011;3530;52.832;10.680;2023-05-10T10:52:14;5.93;;;4.95;;
6979;SDS011;3530;52.832;10.680;2023-05-10T10:55:08;5.72;;;5.15;;
6979;SDS011;3530;52.832;10.680;2023-05-10T10:57:58;6.18;;;5.07;;
6979;SDS011;3530;52.832;10.680;2023-05-10T11:00:47;7.32;;;5.72;;
6979;SDS011;3530;52.832;10.680;2023-05-10T11:03:33;5.72;;;5.18;;
6979;SDS011;3530;52.832;10.680;2023-05-10T11:06:24;6.28;;;5.65;;
6979;SDS011;3530;52.832;10.680;2023-05-10T11:09:17;6.13;;;5.57;;
6979;SDS011;3530;52.832;10.680;2023-05-10T11:12:07;6.00;;;5.40;;
6979;SDS011;3530;52.832;10.680;2023-05-10T11:14:56;6.85;;;5.93;;
6979;SDS011;3530;52.832;10.680;2023-05-10T11:17:42;5.50;;;4.93;;
6979;SDS011;3530;52.832;10.680;2023-05-10T11:20:28;5.60;;;5.10;;
6979;SDS011;3530;52.832;10.680;2023-05-10T11:23:18;5.82;;;5.22;;
6979;SDS011;3530;52.832;10.680;2023-05-10T11:26:07;6.22;;;5.28;;
6979;SDS011;3530;52.832;10.680;2023-05-10T11:28:54;5.95;;;5.15;;
6979;SDS011;3530;52.832;10.680;2023-05-10T11:31:44;6.05;;;5.38;;
6979;SDS011;3530;52.832;10.680;2023-05-10T11:34:32;5.40;;;4.90;;
6979;SDS011;3530;52.832;10.680;2023-05-10T11:37:21;5.28;;;4.78;;
6979;SDS011;3530;52.832;10.680;2023-05-10T11:40:09;5.38;;;4.93;;
6979;SDS011;3530;52.832;10.680;2023-05-10T11:42:55;5.60;;;5.05;;
6979;SDS011;3530;52.832;10.680;2023-05-10T11:45:41;6.15;;;4.68;;
6979;SDS011;3530;52.832;10.680;2023-05-10T11:48:29;4.45;;;4.07;;
6979;SDS011;3530;52.832;10.680;2023-05-10T11:51:14;6.75;;;4.32;;
6979;SDS011;3530;52.832;10.680;2023-05-10T11:54:00;5.35;;;4.70;;
6979;SDS011;3530;52.832;10.680;2023-05-10T11:56:46;4.30;;;4.00;;
6979;SDS011;3530;52.832;10.680;2023-05-10T11:59:31;4.70;;;4.32;;
6979;SDS011;3530;52.832;10.680;2023-05-10T12:02:17;5.20;;;3.70;;
6979;SDS011;3530;52.832;10.680;2023-05-10T12:05:03;4.32;;;3.90;;
6979;SDS011;3530;52.832;10.680;2023-05-10T12:07:50;4.00;;;3.53;;
6979;SDS011;3530;52.832;10.680;2023-05-10T12:10:36;3.78;;;3.47;;
6979;SDS011;3530;52.832;10.680;2023-05-10T12:13:21;3.40;;;3.20;;
6979;SDS011;3530;52.832;10.680;2023-05-10T12:16:13;3.38;;;3.08;;
6979;SDS011;3530;52.832;10.680;2023-05-10T12:19:00;2.92;;;2.72;;
6979;SDS011;3530;52.832;10.680;2023-05-10T12:21:46;3.38;;;3.10;;
6979;SDS011;3530;52.832;10.680;2023-05-10T12:24:38;2.80;;;2.70;;
6979;SDS011;3530;52.832;10.680;2023-05-10T12:27:24;3.45;;;3.25;;
6979;SDS011;3530;52.832;10.680;2023-05-10T12:30:10;3.03;;;2.83;;
6979;SDS011;3530;52.832;10.680;2023-05-10T12:33:09;2.50;;;2.30;;
6979;SDS011;3530;52.832;10.680;2023-05-10T12:35:58;2.75;;;2.55;;
6979;SDS011;3530;52.832;10.680;2023-05-10T12:38:45;2.33;;;2.22;;
6979;SDS011;3530;52.832;10.680;2023-05-10T12:41:33;2.05;;;1.95;;
6979;SDS011;3530;52.832;10.680;2023-05-10T12:44:19;2.58;;;2.38;;
6979;SDS011;3530;52.832;10.680;2023-05-10T12:47:04;2.45;;;2.35;;
6979;SDS011;3530;52.832;10.680;2023-05-10T12:49:51;2.30;;;2.20;;
6979;SDS011;3530;52.832;10.680;2023-05-10T12:52:36;2.20;;;2.10;;
6979;SDS011;3530;52.832;10.680;2023-05-10T12:55:22;3.40;;;3.10;;
6979;SDS011;3530;52.832;10.680;2023-05-10T12:58:08;3.95;;;3.60;;
6979;SDS011;3530;52.832;10.680;2023-05-10T13:00:53;2.65;;;2.55;;
6979;SDS011;3530;52.832;10.680;2023-05-10T13:03:41;2.38;;;2.28;;
6979;SDS011;3530;52.832;10.680;2023-05-10T13:06:28;2.78;;;2.60;;
6979;SDS011;3530;52.832;10.680;2023-05-10T13:09:14;22.48;;;13.77;;
6979;SDS011;3530;52.832;10.680;2023-05-10T13:12:00;2.88;;;2.67;;
6979;SDS011;3530;52.832;10.680;2023-05-10T13:14:46;3.03;;;2.83;;
6979;SDS011;3530;52.832;10.680;2023-05-10T13:17:31;2.95;;;2.75;;
6979;SDS011;3530;52.832;10.680;2023-05-10T13:20:17;2.13;;;2.03;;
6979;SDS011;3530;52.832;10.680;2023-05-10T13:23:03;2.95;;;2.70;;
6979;SDS011;3530;52.832;10.680;2023-05-10T13:25:48;2.63;;;2.42;;
6979;SDS011;3530;52.832;10.680;2023-05-10T13:28:34;2.00;;;1.90;;
6979;SDS011;3530;52.832;10.680;2023-05-10T13:31:19;2.65;;;2.45;;
6979;SDS011;3530;52.832;10.680;2023-05-10T13:34:05;2.83;;;2.63;;
6979;SDS011;3530;52.832;10.680;2023-05-10T13:36:51;2.38;;;2.28;;
6979;SDS011;3530;52.832;10.680;2023-05-10T13:39:38;2.00;;;1.90;;
6979;SDS011;3530;52.832;10.680;2023-05-10T13:42:23;2.67;;;2.47;;
6979;SDS011;3530;52.832;10.680;2023-05-10T13:45:09;2.70;;;2.53;;
6979;SDS011;3530;52.832;10.680;2023-05-10T13:47:57;2.60;;;2.40;;
6979;SDS011;3530;52.832;10.680;2023-05-10T13:50:42;1.85;;;1.83;;
6979;SDS011;3530;52.832;10.680;2023-05-10T13:53:28;2.17;;;2.08;;
6979;SDS011;3530;52.832;10.680;2023-05-10T13:56:14;2.80;;;2.28;;
6979;SDS011;3530;52.832;10.680;2023-05-10T13:58:59;2.50;;;2.40;;
6979;SDS011;3530;52.832;10.680;2023-05-10T14:01:45;2.45;;;2.30;;
6979;SDS011;3530;52.832;10.680;2023-05-10T14:04:31;2.10;;;2.00;;
6979;SDS011;3530;52.832;10.680;2023-05-10T14:07:17;2.50;;;2.40;;
6979;SDS011;3530;52.832;10.680;2023-05-10T14:10:03;2.20;;;2.10;;
6979;SDS011;3530;52.832;10.680;2023-05-10T14:12:49;1.77;;;1.77;;
6979;SDS011;3530;52.832;10.680;2023-05-10T14:15:35;1.65;;;1.65;;
6979;SDS011;3530;52.832;10.680;2023-05-10T14:18:20;2.08;;;1.98;;
6979;SDS011;3530;52.832;10.680;2023-05-10T14:21:06;1.85;;;1.85;;
6979;SDS011;3530;52.832;10.680;2023-05-10T14:23:52;1.70;;;1.67;;
6979;SDS011;3530;52.832;10.680;2023-05-10T14:26:37;2.03;;;1.92;;
6979;SDS011;3530;52.832;10.680;2023-05-10T14:29:23;2.40;;;2.20;;
6979;SDS011;3530;52.832;10.680;2023-05-10T14:32:09;1.92;;;1.90;;
6979;SDS011;3530;52.832;10.680;2023-05-10T14:34:54;1.95;;;1.67;;
6979;SDS011;3530;52.832;10.680;2023-05-10T14:37:40;2.22;;;2.13;;
6979;SDS011;3530;52.832;10.680;2023-05-10T14:40:26;2.95;;;2.75;;
6979;SDS011;3530;52.832;10.680;2023-05-10T14:43:12;3.20;;;2.97;;
6979;SDS011;3530;52.832;10.680;2023-05-10T14:45:57;2.30;;;2.20;;
6979;SDS011;3530;52.832;10.680;2023-05-10T14:48:43;2.90;;;2.60;;
6979;SDS011;3530;52.832;10.680;2023-05-10T14:51:29;1.98;;;1.88;;
6979;SDS011;3530;52.832;10.680;2023-05-10T14:54:14;2.70;;;2.47;;
6979;SDS011;3530;52.832;10.680;2023-05-10T14:57:00;2.45;;;2.35;;
6979;SDS011;3530;52.832;10.680;2023-05-10T14:59:46;2.08;;;1.98;;
6979;SDS011;3530;52.832;10.680;2023-05-10T15:02:31;2.70;;;2.50;;
6979;SDS011;3530;52.832;10.680;2023-05-10T15:05:17;2.33;;;2.22;;
6979;SDS011;3530;52.832;10.680;2023-05-10T15:08:03;2.33;;;2.22;;
6979;SDS011;3530;52.832;10.680;2023-05-10T15:10:50;1.80;;;1.80;;
6979;SDS011;3530;52.832;10.680;2023-05-10T15:13:36;1.75;;;1.75;;
6979;SDS011;3530;52.832;10.680;2023-05-10T15:16:22;2.13;;;2.03;;
6979;SDS011;3530;52.832;10.680;2023-05-10T15:19:07;2.15;;;2.05;;
6979;SDS011;3530;52.832;10.680;2023-05-10T15:21:53;1.88;;;1.77;;
6979;SDS011;3530;52.832;10.680;2023-05-10T15:24:39;1.80;;;1.70;;
6979;SDS011;3530;52.832;10.680;2023-05-10T15:27:25;1.75;;;1.75;;
6979;SDS011;3530;52.832;10.680;2023-05-10T15:30:11;1.85;;;1.75;;
6979;SDS011;3530;52.832;10.680;2023-05-10T15:32:57;1.58;;;1.58;;
6979;SDS011;3530;52.832;10.680;2023-05-10T15:35:43;1.65;;;1.65;;
6979;SDS011;3530;52.832;10.680;2023-05-10T15:38:28;1.58;;;1.52;;
6979;SDS011;3530;52.832;10.680;2023-05-10T15:41:14;2.40;;;2.20;;
6979;SDS011;3530;52.832;10.680;2023-05-10T15:44:00;1.77;;;1.77;;
6979;SDS011;3530;52.832;10.680;2023-05-10T15:46:45;1.70;;;1.70;;
6979;SDS011;3530;52.832;10.680;2023-05-10T15:49:31;2.38;;;2.10;;
6979;SDS011;3530;52.832;10.680;2023-05-10T15:52:18;1.70;;;1.70;;
6979;SDS011;3530;52.832;10.680;2023-05-10T15:55:05;2.13;;;2.03;;
6979;SDS011;3530;52.832;10.680;2023-05-10T15:57:56;2.97;;;2.80;;
6979;SDS011;3530;52.832;10.680;2023-05-10T16:00:42;1.80;;;1.70;;
6979;SDS011;3530;52.832;10.680;2023-05-10T16:03:28;1.92;;;1.83;;
6979;SDS011;3530;52.832;10.680;2023-05-10T16:06:15;2.05;;;1.98;;
6979;SDS011;3530;52.832;10.680;2023-05-10T16:09:00;1.70;;;1.70;;
6979;SDS011;3530;52.832;10.680;2023-05-10T16:11:46;1.48;;;1.48;;
6979;SDS011;3530;52.832;10.680;2023-05-10T16:14:32;2.30;;;1.73;;
6979;SDS011;3530;52.832;10.680;2023-05-10T16:17:17;2.40;;;2.28;;
6979;SDS011;3530;52.832;10.680;2023-05-10T16:20:04;1.98;;;1.95;;
6979;SDS011;3530;52.832;10.680;2023-05-10T16:22:50;2.15;;;2.05;;
6979;SDS011;3530;52.832;10.680;2023-05-10T16:25:36;2.45;;;2.22;;
6979;SDS011;3530;52.832;10.680;2023-05-10T16:28:22;1.98;;;1.88;;
6979;SDS011;3530;52.832;10.680;2023-05-10T16:31:07;2.20;;;2.10;;
6979;SDS011;3530;52.832;10.680;2023-05-10T16:33:53;2.30;;;2.20;;
6979;SDS011;3530;52.832;10.680;2023-05-10T16:36:38;2.30;;;2.20;;
6979;SDS011;3530;52.832;10.680;2023-05-10T16:39:24;2.55;;;2.45;;
6979;SDS011;3530;52.832;10.680;2023-05-10T16:42:10;2.28;;;2.20;;
6979;SDS011;3530;52.832;10.680;2023-05-10T16:44:55;2.38;;;2.20;;
6979;SDS011;3530;52.832;10.680;2023-05-10T16:47:41;2.10;;;2.00;;
6979;SDS011;3530;52.832;10.680;2023-05-10T16:50:27;2.10;;;2.00;;
6979;SDS011;3530;52.832;10.680;2023-05-10T16:53:13;2.22;;;2.13;;
6979;SDS011;3530;52.832;10.680;2023-05-10T16:55:58;2.42;;;2.33;;
6979;SDS011;3530;52.832;10.680;2023-05-10T16:58:45;2.33;;;2.22;;
6979;SDS011;3530;52.832;10.680;2023-05-10T17:01:32;1.85;;;1.80;;
6979;SDS011;3530;52.832;10.680;2023-05-10T17:04:18;2.33;;;2.22;;
6979;SDS011;3530;52.832;10.680;2023-05-10T17:07:03;2.20;;;2.10;;
6979;SDS011;3530;52.832;10.680;2023-05-10T17:09:49;2.10;;;2.00;;
6979;SDS011;3530;52.832;10.680;2023-05-10T17:12:35;2.25;;;1.75;;
6979;SDS011;3530;52.832;10.680;2023-05-10T17:15:20;2.08;;;1.98;;
6979;SDS011;3530;52.832;10.680;2023-05-10T17:18:06;1.90;;;1.80;;